createdAt,value
2023-02-16T00:00:26.170Z,-5.2
2023-02-16T00:06:05.586Z,-5.3
2023-02-16T00:11:43.935Z,-5.3
2023-02-16T00:16:51.059Z,-5.3
2023-02-16T00:22:13.058Z,-5.4
2023-02-16T00:27:51.342Z,-5.5
2023-02-16T00:33:30.342Z,-5.6
2023-02-16T00:39:08.296Z,-5.6
2023-02-16T00:44:14.915Z,-5.7
2023-02-16T00:49:22.025Z,-5.8
2023-02-16T00:54:52.643Z,-5.6
2023-02-16T01:00:29.638Z,-5.6
2023-02-16T01:06:08.264Z,-5.6
2023-02-16T01:11:45.991Z,-5.6
2023-02-16T01:17:21.173Z,-5.6
2023-02-16T01:22:58.472Z,-5.6
2023-02-16T01:28:21.511Z,-5.5
2023-02-16T01:33:59.918Z,-5.6
2023-02-16T01:39:37.726Z,-5.7
2023-02-16T01:45:15.000Z,-5.6
2023-02-16T01:50:37.570Z,-5.6
2023-02-16T01:56:14.694Z,-5.6
2023-02-16T02:01:51.783Z,-5.6
2023-02-16T02:07:28.836Z,-5.7
2023-02-16T02:13:06.239Z,-5.8
2023-02-16T02:18:44.404Z,-5.9
2023-02-16T02:23:50.743Z,-6
2023-02-16T02:29:26.953Z,-6.1
2023-02-16T02:35:07.438Z,-6.1
2023-02-16T02:40:44.523Z,-6.2
2023-02-16T02:46:22.051Z,-6.2
2023-02-16T02:51:44.111Z,-6.3
2023-02-16T02:57:20.664Z,-6.4
2023-02-16T03:02:26.591Z,-6.4
2023-02-16T03:07:48.939Z,-6.5
2023-02-16T03:12:55.721Z,-6.6
2023-02-16T03:18:17.849Z,-6.7
2023-02-16T03:23:55.678Z,-6.7
2023-02-16T03:29:33.547Z,-6.8
2023-02-16T03:35:12.133Z,-6.8
2023-02-16T03:40:49.780Z,-6.8
2023-02-16T03:46:27.041Z,-6.8
2023-02-16T03:51:33.542Z,-6.8
2023-02-16T03:57:11.372Z,-6.8
2023-02-16T04:02:51.527Z,-6.9
2023-02-16T04:08:14.029Z,-6.9
2023-02-16T04:13:51.654Z,-6.9
2023-02-16T04:19:31.059Z,-6.9
2023-02-16T04:24:52.460Z,-6.9
2023-02-16T04:30:30.397Z,-6.9
2023-02-16T04:36:10.170Z,-7.1
2023-02-16T04:41:32.987Z,-7.2
2023-02-16T04:47:11.697Z,-7.3
2023-02-16T04:52:48.852Z,-7.4
2023-02-16T04:58:10.460Z,-7.4
2023-02-16T05:03:48.764Z,-7.4
2023-02-16T05:09:26.704Z,-7.4
2023-02-16T05:15:04.881Z,-7.4
2023-02-16T05:20:27.961Z,-7.5
2023-02-16T05:26:06.043Z,-7.6
2023-02-16T05:31:44.770Z,-7.7
2023-02-16T05:37:25.822Z,-7.7
2023-02-16T05:43:03.765Z,-7.7
2023-02-16T05:48:42.833Z,-7.6
2023-02-16T05:54:20.044Z,-7.6
2023-02-16T05:59:56.994Z,-7.4
2023-02-16T06:05:36.261Z,-7.1
2023-02-16T06:11:13.381Z,-6.8
2023-02-16T06:16:49.881Z,-6.4
2023-02-16T06:22:26.672Z,-5.9
2023-02-16T06:28:04.652Z,-5.2
2023-02-16T06:33:44.468Z,-3.9
2023-02-16T06:39:21.887Z,-2.1
2023-02-16T06:45:00.265Z,0.8
2023-02-16T06:50:39.832Z,6.1
2023-02-16T06:56:17.412Z,10.8
2023-02-16T07:01:44.914Z,14.9
2023-02-16T07:07:06.161Z,18.8
2023-02-16T07:12:51.437Z,22.9
2023-02-16T07:18:29.133Z,26.4
2023-02-16T07:24:05.389Z,29.5
2023-02-16T07:29:43.448Z,32.5
2023-02-16T07:35:22.779Z,36
2023-02-16T07:41:00.249Z,42.4
2023-02-16T07:46:38.362Z,40.6
2023-02-16T07:52:16.616Z,33.6
2023-02-16T07:57:53.570Z,35
2023-02-16T08:03:36.058Z,42.7
2023-02-16T08:09:15.256Z,43.2
2023-02-16T08:14:52.775Z,40.4
2023-02-16T08:20:51.088Z,41
2023-02-16T08:26:08.664Z,42.4
2023-02-16T08:31:31.471Z,43.8
2023-02-16T08:37:09.823Z,45.3
2023-02-16T08:42:48.118Z,46.4
2023-02-16T08:48:26.264Z,47.6
2023-02-16T08:54:05.816Z,48.2
2023-02-16T08:59:45.946Z,49.3
2023-02-16T09:05:23.815Z,50.3
2023-02-16T09:11:01.194Z,51.3
2023-02-16T09:15:54.247Z,52.3
2023-02-16T09:21:17.375Z,53
2023-02-16T09:26:55.101Z,53.5
2023-02-16T09:32:32.952Z,54.5
2023-02-16T09:38:09.737Z,55
2023-02-16T09:43:47.291Z,55.2
2023-02-16T09:49:25.340Z,55.4
2023-02-16T09:55:33.310Z,57
2023-02-16T10:01:13.038Z,58.1
2023-02-16T10:06:20.267Z,58.1
2023-02-16T10:11:42.047Z,58.6
2023-02-16T10:17:21.505Z,59.2
2023-02-16T10:22:58.153Z,60.2
2023-02-16T10:28:34.500Z,60.9
2023-02-16T10:34:13.481Z,61.3
2023-02-16T10:39:50.091Z,61.4
2023-02-16T10:45:27.444Z,60.9
2023-02-16T10:50:52.363Z,61.8
2023-02-16T10:56:30.336Z,61.8
2023-02-16T11:02:07.203Z,61.1
2023-02-16T11:07:48.689Z,61.1
2023-02-16T11:13:10.821Z,61.8
2023-02-16T11:18:47.735Z,62.2
2023-02-16T11:24:25.233Z,62.3
2023-02-16T11:30:02.361Z,60.7
2023-02-16T11:35:40.157Z,60.2
2023-02-16T11:41:33.119Z,60.5
2023-02-16T11:46:55.719Z,60.9
2023-02-16T11:52:33.008Z,60.3
2023-02-16T11:58:11.018Z,60.9
2023-02-16T12:03:49.196Z,61.5
2023-02-16T12:09:26.965Z,60.8
2023-02-16T12:15:05.949Z,61.1
2023-02-16T12:20:44.493Z,61.6
2023-02-16T12:26:21.632Z,60.4
2023-02-16T12:31:59.628Z,59.9
2023-02-16T12:37:38.867Z,59.3
2023-02-16T12:43:17.298Z,59.3
2023-02-16T12:48:43.953Z,56.6
2023-02-16T12:54:21.670Z,56.5
2023-02-16T12:59:59.190Z,58
2023-02-16T13:05:40.605Z,59.2
2023-02-16T13:11:18.548Z,63.8
2023-02-16T13:17:04.474Z,60
2023-02-16T13:22:47.120Z,54.7
2023-02-16T13:28:25.980Z,54.4
2023-02-16T13:34:06.713Z,55.3
2023-02-16T13:39:45.342Z,55.9
2023-02-16T13:45:22.983Z,55.8
2023-02-16T13:50:59.317Z,55.4
2023-02-16T13:56:05.710Z,54.6
2023-02-16T14:01:43.649Z,53.5
2023-02-16T14:07:05.159Z,52.3
2023-02-16T14:12:43.081Z,50.9
2023-02-16T14:18:20.859Z,49.6
2023-02-16T14:23:59.793Z,47.9
2023-02-16T14:29:36.947Z,46.3
2023-02-16T14:35:16.774Z,43.8
2023-02-16T14:41:15.615Z,41.6
2023-02-16T14:46:53.739Z,40.9
2023-02-16T14:52:31.732Z,39.5
2023-02-16T14:58:10.697Z,34.2
2023-02-16T15:03:48.464Z,29.3
2023-02-16T15:09:10.484Z,27.4
2023-02-16T15:14:46.951Z,26.3
2023-02-16T15:20:24.577Z,25.1
2023-02-16T15:26:02.765Z,24.1
2023-02-16T15:31:41.860Z,23.1
2023-02-16T15:37:06.217Z,21.9
2023-02-16T15:43:17.708Z,20.6
2023-02-16T15:48:58.011Z,19.3
2023-02-16T15:54:19.619Z,18.1
2023-02-16T15:59:56.283Z,16.8
2023-02-16T16:05:41.976Z,15.5
2023-02-16T16:11:03.759Z,14.4
2023-02-16T16:16:42.332Z,13.3
2023-02-16T16:22:04.145Z,12.5
2023-02-16T16:27:27.695Z,11.8
2023-02-16T16:33:06.492Z,11.1
2023-02-16T16:38:58.417Z,10.3
2023-02-16T16:44:20.380Z,9.8
2023-02-16T16:49:57.571Z,9.1
2023-02-16T16:55:34.803Z,8.6
2023-02-16T17:00:57.579Z,8.1
2023-02-16T17:06:35.692Z,7.8
2023-02-16T17:12:12.222Z,7.4
2023-02-16T17:17:49.976Z,7.1
2023-02-16T17:23:12.253Z,6.8
2023-02-16T17:28:58.311Z,6.4
2023-02-16T17:34:20.773Z,6
2023-02-16T17:39:58.497Z,5.6
2023-02-16T17:45:37.362Z,5.3
2023-02-16T17:50:43.956Z,4.9
2023-02-16T17:56:08.008Z,4.5
2023-02-16T18:01:31.435Z,4.3
2023-02-16T18:07:09.301Z,4
2023-02-16T18:12:47.566Z,3.8
2023-02-16T18:18:12.384Z,3.5
2023-02-16T18:23:50.338Z,3.1
2023-02-16T18:29:57.631Z,2.8
2023-02-16T18:35:37.712Z,2.6
2023-02-16T18:40:44.491Z,2.3
2023-02-16T18:46:22.859Z,2
2023-02-16T18:52:01.318Z,1.9
2023-02-16T18:57:38.515Z,1.9
2023-02-16T19:03:16.418Z,1.8
2023-02-16T19:08:53.469Z,1.7
2023-02-16T19:14:31.186Z,1.4
2023-02-16T19:20:08.821Z,1.3
2023-02-16T19:25:46.606Z,1.3
2023-02-16T19:31:09.592Z,1
2023-02-16T19:36:47.213Z,0.8
2023-02-16T19:42:09.189Z,0.6
2023-02-16T19:47:31.907Z,0.3
2023-02-16T19:52:53.784Z,0.2
2023-02-16T19:58:16.101Z,0.1
2023-02-16T20:03:54.039Z,-0.1
2023-02-16T20:09:18.781Z,-0.2
2023-02-16T20:14:56.204Z,-0.3
2023-02-16T20:20:17.851Z,-0.5
2023-02-16T20:25:55.227Z,-0.6
2023-02-16T20:31:32.825Z,-0.8
2023-02-16T20:42:16.869Z,-1.1
2023-02-16T20:47:23.679Z,-1.1
2023-02-16T20:52:45.582Z,-1.2
2023-02-16T20:58:37.401Z,-1.1
2023-02-16T21:04:15.326Z,-1.3
2023-02-16T21:09:53.148Z,-1.3
2023-02-16T21:15:15.639Z,-1.4
2023-02-16T21:21:05.902Z,-1.5
2023-02-16T21:26:43.091Z,-1.5
2023-02-16T21:32:20.043Z,-1.5
2023-02-16T21:37:41.723Z,-1.6
2023-02-16T21:42:48.143Z,-1.8
2023-02-16T21:48:26.496Z,-1.9
2023-02-16T21:54:02.999Z,-1.9
2023-02-16T21:59:24.642Z,-1.8
2023-02-16T22:05:02.545Z,-1.7
2023-02-16T22:10:40.684Z,-1.8
2023-02-16T22:16:18.070Z,-1.9
2023-02-16T22:21:58.888Z,-2.1
2023-02-16T22:27:36.228Z,-2.2
2023-02-16T22:33:14.601Z,-2.4
2023-02-16T22:38:51.746Z,-2.6
2023-02-16T22:44:29.572Z,-2.7
2023-02-16T22:50:07.654Z,-2.8
2023-02-16T22:55:46.328Z,-3
2023-02-16T23:01:09.194Z,-3.1
2023-02-16T23:06:31.081Z,-3.1
2023-02-16T23:11:53.463Z,-3.2
2023-02-16T23:17:31.435Z,-3.3
2023-02-16T23:23:08.854Z,-3.3
2023-02-16T23:28:45.325Z,-3.4
2023-02-16T23:34:22.579Z,-3.6
2023-02-16T23:40:00.133Z,-3.6
2023-02-16T23:45:37.533Z,-3.6
2023-02-16T23:51:16.032Z,-3.6
2023-02-16T23:56:53.624Z,-3.6
